Time;durP1;ratioP1;P1;durP2;ratioP2;P2;SDS_P1;SDS_P2;PMS_P1;PMS_P2;Temp;Humidity;BMP_temperature;BMP_pressure;BME280_temperature;BME280_humidity;BME280_pressure;Samples;Min_cycle;Max_cycle;Signal;HPM_P1;HPM_P2
2022/05/26 00:00:23;;;;;;;14.23;7.72;;;;;;;13.91;100.00;101700.13;5058021;28;20116;-44
2022/05/26 00:02:48;;;;;;;16.23;7.40;;;;;;;13.91;100.00;101701.97;5044866;28;20387;-43
2022/05/26 00:05:14;;;;;;;12.23;7.63;;;;;;;13.91;100.00;101701.97;5018307;28;20185;-45
2022/05/26 00:07:39;;;;;;;10.07;6.90;;;;;;;13.91;100.00;101696.59;5017618;28;20037;-43
2022/05/26 00:10:05;;;;;;;14.98;7.40;;;;;;;13.92;100.00;101701.81;5017658;28;20657;-44
2022/05/26 00:12:32;;;;;;;9.55;6.55;;;;;;;13.94;100.00;101699.81;5015874;28;20052;-43
2022/05/26 00:14:57;;;;;;;14.88;7.43;;;;;;;13.91;100.00;101700.13;5018430;28;20076;-42
2022/05/26 00:17:22;;;;;;;10.23;6.78;;;;;;;13.94;100.00;101701.66;5016797;28;20156;-43
2022/05/26 00:19:48;;;;;;;9.50;6.82;;;;;;;13.94;100.00;101704.34;5017903;28;20448;-47
2022/05/26 00:22:14;;;;;;;9.27;6.25;;;;;;;13.93;100.00;101705.34;5018083;28;20037;-45
2022/05/26 00:24:41;;;;;;;10.88;6.15;;;;;;;13.92;100.00;101709.88;5015371;28;20017;-44
2022/05/26 00:27:06;;;;;;;14.45;6.55;;;;;;;13.94;100.00;101707.03;5018072;28;20033;-43
2022/05/26 00:29:31;;;;;;;12.93;6.53;;;;;;;13.92;100.00;101701.00;5016007;28;20227;-47
2022/05/26 00:31:56;;;;;;;12.05;6.40;;;;;;;13.93;100.00;101706.19;5017331;28;20072;-43
2022/05/26 00:34:22;;;;;;;15.40;6.78;;;;;;;13.96;100.00;101705.03;5017164;28;20022;-44
2022/05/26 00:36:47;;;;;;;12.70;6.32;;;;;;;13.96;100.00;101711.22;5017803;28;20029;-45
2022/05/26 00:39:16;;;;;;;12.02;7.20;;;;;;;13.94;100.00;101701.66;5014962;28;20041;-47
2022/05/26 00:41:46;;;;;;;16.23;7.20;;;;;;;13.97;100.00;101706.72;5018085;28;20140;-45
2022/05/26 00:44:12;;;;;;;16.40;7.07;;;;;;;13.94;100.00;101699.81;5015647;28;20112;-45
2022/05/26 00:47:17;;;;;;;11.85;7.03;;;;;;;13.95;100.00;101700.63;5017099;28;20634;-44
2022/05/26 00:49:56;;;;;;;14.38;6.97;;;;;;;13.91;100.00;101700.13;4986940;28;20581;-46
2022/05/26 00:52:35;;;;;;;14.07;7.18;;;;;;;13.94;100.00;101707.03;5016125;28;20092;-45
2022/05/26 00:55:05;;;;;;;14.23;7.65;;;;;;;13.92;100.00;101704.50;5016775;28;20479;-43
2022/05/26 00:57:37;;;;;;;17.83;7.07;;;;;;;13.94;100.00;101698.97;5015795;28;20340;-45
2022/05/26 01:00:14;;;;;;;13.20;7.50;;;;;;;13.95;100.00;101703.31;5017685;28;20064;-44
2022/05/26 01:02:48;;;;;;;13.93;7.25;;;;;;;13.94;100.00;101697.13;5019371;28;20443;-46
2022/05/26 01:05:21;;;;;;;15.85;7.53;;;;;;;13.91;100.00;101701.97;5037077;28;20025;-44
2022/05/26 01:07:47;;;;;;;19.30;8.45;;;;;;;13.92;100.00;101706.38;5036441;28;20029;-44
2022/05/26 01:10:14;;;;;;;14.57;7.50;;;;;;;13.94;100.00;101707.03;5036824;28;20157;-46
2022/05/26 01:12:40;;;;;;;20.58;8.00;;;;;;;13.92;100.00;101707.19;5035124;28;20041;-44
2022/05/26 01:15:16;;;;;;;15.77;7.63;;;;;;;13.93;100.00;101708.88;5037080;28;20032;-43
2022/05/26 01:18:00;;;;;;;18.10;8.00;;;;;;;13.96;100.00;101713.91;5036429;28;20074;-46
2022/05/26 01:20:51;;;;;;;16.33;7.55;;;;;;;13.94;100.00;101713.25;5036077;28;20025;-44
2022/05/26 01:23:27;;;;;;;14.48;7.47;;;;;;;13.96;100.00;101719.28;5033525;28;20100;-43
2022/05/26 01:26:20;;;;;;;19.80;8.15;;;;;;;13.95;100.00;101720.31;5037002;28;20109;-46
2022/05/26 01:29:26;;;;;;;20.30;7.30;;;;;;;13.97;100.00;101722.84;5035390;28;20021;-45
2022/05/26 01:32:21;;;;;;;20.40;7.05;;;;;;;13.97;100.00;101726.34;5035939;28;20120;-46
2022/05/26 01:35:01;;;;;;;15.45;6.78;;;;;;;13.97;100.00;101720.97;5035186;28;20031;-44
2022/05/26 01:37:36;;;;;;;17.40;7.68;;;;;;;13.98;100.00;101722.66;5034856;28;20741;-46
2022/05/26 01:40:41;;;;;;;16.50;7.57;;;;;;;13.96;100.00;101718.44;5033895;28;20056;-44
2022/05/26 01:43:10;;;;;;;16.83;8.20;;;;;;;13.94;100.00;101721.28;5015611;28;20648;-47
2022/05/26 01:45:54;;;;;;;24.73;8.35;;;;;;;13.97;100.00;101738.94;5016027;28;20114;-45
2022/05/26 01:48:36;;;;;;;24.60;8.48;;;;;;;13.96;100.00;101729.19;5013033;28;20041;-44
2022/05/26 01:51:25;;;;;;;22.77;8.45;;;;;;;13.96;100.00;101740.78;5016607;28;20029;-44
2022/05/26 01:54:09;;;;;;;17.98;8.75;;;;;;;13.93;100.00;101741.13;5014467;28;20140;-43
2022/05/26 01:56:48;;;;;;;22.77;8.15;;;;;;;13.94;100.00;101747.31;5014965;28;20079;-46
2022/05/26 01:59:28;;;;;;;21.60;8.35;;;;;;;13.93;100.00;101742.94;5014636;28;20131;-45
2022/05/26 02:01:59;;;;;;;17.58;8.50;;;;;;;13.92;100.00;101738.59;5016071;28;20075;-44
2022/05/26 02:04:29;;;;;;;19.33;8.73;;;;;;;13.91;100.00;101745.78;5014966;28;20501;-45
2022/05/26 02:07:03;;;;;;;26.75;9.52;;;;;;;13.88;100.00;101743.41;5015516;28;20025;-44
2022/05/26 02:09:38;;;;;;;18.90;8.80;;;;;;;13.89;100.00;101749.66;5014080;28;20525;-44
2022/05/26 02:12:07;;;;;;;26.48;9.75;;;;;;;13.88;100.00;101756.84;5016104;28;20025;-46
2022/05/26 02:14:40;;;;;;;30.10;10.55;;;;;;;13.87;100.00;101757.84;5014533;28;20044;-43
2022/05/26 02:17:26;;;;;;;29.70;10.55;;;;;;;13.88;100.00;101759.53;5015215;28;20793;-43
2022/05/26 02:20:18;;;;;;;22.60;9.55;;;;;;;13.89;100.00;101760.38;5016321;28;20030;-44
2022/05/26 02:23:06;;;;;;;25.60;10.25;;;;;;;13.88;100.00;101756.00;5035147;28;20351;-44
2022/05/26 02:25:34;;;;;;;27.20;10.90;;;;;;;13.84;100.00;101762.72;5034925;28;20108;-48
2022/05/26 02:27:59;;;;;;;29.52;10.95;;;;;;;13.83;100.00;101758.31;5026854;28;20550;-46
2022/05/26 02:30:31;;;;;;;22.17;10.50;;;;;;;13.82;100.00;101759.34;5020461;28;20191;-46
2022/05/26 02:32:58;;;;;;;25.67;10.95;;;;;;;13.82;100.00;101770.91;5033161;28;20273;-44
2022/05/26 02:35:27;;;;;;;28.23;11.23;;;;;;;13.82;100.00;101770.09;5016989;28;20111;-47
2022/05/26 02:37:57;;;;;;;23.52;10.18;;;;;;;13.81;100.00;101769.22;5018198;28;20473;-44
2022/05/26 02:40:22;;;;;;;26.70;11.57;;;;;;;13.81;100.00;101771.91;5018903;28;20495;-45
2022/05/26 02:42:53;;;;;;;26.02;11.20;;;;;;;13.82;100.00;101759.34;5017932;28;20331;-45
2022/05/26 02:45:41;;;;;;;32.47;11.35;;;;;;;13.81;100.00;101771.91;5017203;28;20498;-44
2022/05/26 02:48:28;;;;;;;31.20;12.30;;;;;;;13.80;100.00;101772.94;5018887;28;20440;-44
2022/05/26 02:51:09;;;;;;;30.05;11.77;;;;;;;13.79;100.00;101771.25;5019803;28;20252;-46
2022/05/26 02:53:47;;;;;;;28.73;11.23;;;;;;;13.79;100.00;101776.59;5017274;28;20395;-44
2022/05/26 02:56:25;;;;;;;35.30;11.30;;;;;;;13.78;100.00;101781.16;5019683;28;20360;-47
2022/05/26 02:59:14;;;;;;;32.05;11.57;;;;;;;13.79;100.00;101776.59;5017801;28;20095;-45
2022/05/26 03:02:13;;;;;;;34.40;11.45;;;;;;;13.79;100.00;101776.59;5018410;28;20475;-44
2022/05/26 03:04:44;;;;;;;36.22;12.02;;;;;;;13.74;100.00;101765.50;5017588;28;20180;-44
2022/05/26 03:07:15;;;;;;;35.30;11.13;;;;;;;13.75;100.00;101776.09;5018493;28;20025;-43
2022/05/26 03:09:41;;;;;;;30.38;10.93;;;;;;;13.77;100.00;101778.63;5018059;28;20632;-46
2022/05/26 03:12:29;;;;;;;36.92;11.00;;;;;;;13.76;100.00;101783.16;5019002;28;20075;-44
2022/05/26 03:14:55;;;;;;;39.90;11.77;;;;;;;13.71;100.00;101782.75;5018840;28;20347;-45
2022/05/26 03:17:21;;;;;;;35.28;11.77;;;;;;;13.67;100.00;101781.41;5017315;28;20109;-45
2022/05/26 03:19:47;;;;;;;42.35;11.88;;;;;;;13.65;100.00;101783.41;5019163;28;20025;-43
2022/05/26 03:22:12;;;;;;;32.90;11.05;;;;;;;13.64;100.00;101788.94;5017511;28;20476;-45
2022/05/26 03:24:38;;;;;;;32.85;11.18;;;;;;;13.62;100.00;101786.41;5017435;28;20273;-44
2022/05/26 03:27:04;;;;;;;33.00;10.90;;;;;;;13.62;100.00;101789.91;5018692;28;20060;-44
2022/05/26 03:29:29;;;;;;;31.63;11.10;;;;;;;13.61;100.00;101796.31;5036142;28;20029;-46
2022/05/26 03:31:55;;;;;;;31.98;10.75;;;;;;;13.60;100.00;101802.66;5036021;28;20260;-46
2022/05/26 03:42:31;;;;;;;38.78;10.38;;;;;;;13.57;100.00;101811.03;5036592;28;20044;-43
2022/05/26 03:44:58;;;;;;;38.92;10.48;;;;;;;13.56;100.00;101803.13;5038412;28;20033;-43
2022/05/26 03:47:23;;;;;;;34.63;9.68;;;;;;;13.55;100.00;101809.50;5036669;28;20070;-42
2022/05/26 03:49:49;;;;;;;45.22;10.65;;;;;;;13.52;100.00;101810.66;5039030;28;20024;-44
2022/05/26 03:52:14;;;;;;;46.97;10.20;;;;;;;13.49;100.00;101816.31;5037466;28;20044;-45
2022/05/26 03:54:39;;;;;;;39.40;9.57;;;;;;;13.52;100.00;101815.19;5036533;28;20039;-43
2022/05/26 03:57:06;;;;;;;40.85;9.57;;;;;;;13.49;100.00;101815.50;5038033;28;20115;-45
2022/05/26 03:59:33;;;;;;;33.03;8.95;;;;;;;13.48;100.00;101817.34;5024528;28;20489;-44
2022/05/26 04:01:58;;;;;;;36.08;9.05;;;;;;;13.50;100.00;101823.41;5015388;28;20361;-43
2022/05/26 04:04:24;;;;;;;39.50;8.93;;;;;;;13.49;100.00;101816.31;5016563;28;20032;-44
2022/05/26 04:06:49;;;;;;;39.22;9.30;;;;;;;13.48;100.00;101828.09;5016087;28;20029;-46
2022/05/26 04:09:15;;;;;;;30.85;8.57;;;;;;;13.50;100.00;101827.94;5016866;28;20037;-43
2022/05/26 04:11:40;;;;;;;29.90;8.15;;;;;;;13.48;100.00;101832.63;5017718;28;20087;-46
2022/05/26 04:14:05;;;;;;;40.28;8.32;;;;;;;13.47;100.00;101829.06;5016881;28;20116;-43
2022/05/26 04:16:31;;;;;;;47.05;9.25;;;;;;;13.48;100.00;101829.94;5016756;28;20660;-43
2022/05/26 04:18:56;;;;;;;31.30;8.63;;;;;;;13.46;100.00;101834.59;5048924;28;20472;-43
2022/05/26 04:21:21;;;;;;;31.67;7.43;;;;;;;13.43;100.00;101830.38;5017204;28;20509;-45
2022/05/26 04:23:47;;;;;;;35.17;8.38;;;;;;;13.43;100.00;101833.91;5016467;28;20285;-45
2022/05/26 04:26:12;;;;;;;27.08;7.03;;;;;;;13.44;100.00;101837.41;5016939;28;20405;-45
2022/05/26 04:28:38;;;;;;;34.92;8.05;;;;;;;13.40;100.00;101839.56;5015516;28;20496;-47
2022/05/26 04:31:04;;;;;;;32.30;7.43;;;;;;;13.37;100.00;101834.53;5017881;28;20052;-44
2022/05/26 04:33:29;;;;;;;36.40;8.15;;;;;;;13.38;100.00;101841.59;5015727;28;20111;-46
2022/05/26 04:35:56;;;;;;;37.65;8.68;;;;;;;13.38;100.00;101844.25;5017284;28;20056;-45
2022/05/26 04:38:22;;;;;;;33.35;7.75;;;;;;;13.37;100.00;101837.22;5015056;28;20029;-45
2022/05/26 04:41:02;;;;;;;39.47;8.38;;;;;;;13.37;100.00;101847.97;5017479;28;20029;-44
2022/05/26 04:43:28;;;;;;;33.90;8.00;;;;;;;13.36;100.00;101846.28;5014885;28;20033;-45
2022/05/26 04:45:53;;;;;;;35.50;7.60;;;;;;;13.39;100.00;101851.34;5015896;28;20156;-44
2022/05/26 04:48:21;;;;;;;32.30;7.57;;;;;;;13.45;100.00;101855.22;5015779;28;20112;-44
2022/05/26 04:50:47;;;;;;;30.30;7.88;;;;;;;13.49;100.00;101866.47;5017197;28;20017;-43
2022/05/26 04:53:12;;;;;;;31.90;6.80;;;;;;;13.51;100.00;101865.34;5015629;28;20040;-48
2022/05/26 04:55:38;;;;;;;40.10;7.97;;;;;;;13.55;100.00;101877.44;5016755;28;20029;-43
2022/05/26 04:58:03;;;;;;;32.67;7.32;;;;;;;13.60;100.00;101885.03;5012877;28;20141;-45
2022/05/26 05:00:28;;;;;;;42.42;8.13;;;;;;;13.65;100.00;101874.69;5016028;28;20025;-45
2022/05/26 05:02:53;;;;;;;33.80;7.32;;;;;;;13.70;100.00;101879.59;5016554;28;20473;-43
2022/05/26 05:05:19;;;;;;;39.63;7.82;;;;;;;13.71;100.00;101887.47;5015876;28;20550;-42
2022/05/26 05:07:45;;;;;;;38.95;7.65;;;;;;;13.76;100.00;101887.84;5015252;28;20040;-46
2022/05/26 05:10:10;;;;;;;36.35;7.75;;;;;;;13.79;100.00;101900.94;5016994;28;20028;-43
2022/05/26 05:12:36;;;;;;;35.10;7.63;;;;;;;13.84;100.00;101894.28;5015033;28;20030;-45
2022/05/26 05:15:03;;;;;;;37.97;7.78;;;;;;;13.84;100.00;101905.84;5016457;28;20301;-43
2022/05/26 05:17:29;;;;;;;33.30;7.13;;;;;;;13.85;100.00;101906.69;5014819;28;20036;-43
2022/05/26 05:19:54;;;;;;;34.38;7.57;;;;;;;13.87;100.00;101897.50;5016895;28;20112;-45
2022/05/26 05:22:31;;;;;;;29.90;6.65;;;;;;;13.94;100.00;101908.44;5014462;28;20032;-43
2022/05/26 05:25:14;;;;;;;36.15;7.10;;;;;;;13.89;100.00;101905.41;5016359;28;20108;-44
2022/05/26 05:27:48;;;;;;;40.72;8.13;;;;;;;13.93;100.00;101902.25;5014490;28;20159;-45
2022/05/26 05:30:24;;;;;;;35.22;7.93;;;;;;;13.98;100.00;101899.94;5016457;28;20406;-46
2022/05/26 05:33:06;;;;;;;32.58;7.60;;;;;;;14.06;100.00;101917.94;5015584;28;20040;-44
2022/05/26 05:35:43;;;;;;;36.60;7.53;;;;;;;14.13;100.00;101918.97;5015624;28;20029;-45
2022/05/26 05:38:09;;;;;;;38.00;7.28;;;;;;;14.13;100.00;101915.47;5015159;28;20112;-44
2022/05/26 05:40:35;;;;;;;31.17;6.70;;;;;;;14.16;100.00;101921.34;5015755;28;20025;-45
2022/05/26 05:43:01;;;;;;;29.60;7.25;;;;;;;14.23;100.00;101926.09;5014930;28;20040;-44
2022/05/26 05:45:26;;;;;;;39.05;7.88;;;;;;;14.26;100.00;101917.72;5015424;28;20033;-44
2022/05/26 05:47:52;;;;;;;41.35;7.78;;;;;;;14.25;100.00;101924.09;5015597;28;20271;-44
2022/05/26 05:50:17;;;;;;;38.08;7.00;;;;;;;14.30;100.00;101929.84;5015467;28;20021;-45
2022/05/26 05:52:42;;;;;;;33.53;7.40;;;;;;;14.31;100.00;101928.84;5014027;28;20051;-44
2022/05/26 05:55:08;;;;;;;33.13;7.15;;;;;;;14.30;100.00;101932.53;5016133;28;20033;-45
2022/05/26 05:57:33;;;;;;;34.35;6.95;;;;;;;14.31;100.00;101935.06;5014174;28;20533;-46
2022/05/26 05:59:59;;;;;;;32.45;7.00;;;;;;;14.34;100.00;101936.56;5016504;28;20029;-44
2022/05/26 06:02:24;;;;;;;36.90;7.25;;;;;;;14.40;100.00;101940.47;5014666;28;20018;-44
2022/05/26 06:04:50;;;;;;;34.55;7.07;;;;;;;14.45;100.00;101933.59;5016443;28;20588;-47
2022/05/26 06:07:17;;;;;;;34.35;6.85;;;;;;;14.55;100.00;101939.72;5015196;28;20035;-45
2022/05/26 06:09:43;;;;;;;38.40;7.22;;;;;;;14.66;100.00;101944.00;5019250;28;20025;-48
2022/05/26 06:12:10;;;;;;;33.17;7.43;;;;;;;14.73;100.00;101942.34;5019901;28;20021;-45
2022/05/26 06:14:35;;;;;;;31.52;7.20;;;;;;;14.79;100.00;101950.78;5049287;28;20043;-44
2022/05/26 06:17:00;;;;;;;28.88;7.05;;;;;;;14.78;100.00;101949.91;5019541;28;20021;-48
2022/05/26 06:19:26;;;;;;;29.05;6.97;;;;;;;14.88;100.00;101963.25;5018812;28;20033;-45
2022/05/26 06:21:52;;;;;;;33.38;7.65;;;;;;;14.91;100.00;101958.38;5020116;28;20025;-49
2022/05/26 06:24:22;;;;;;;37.60;7.55;;;;;;;14.99;100.00;101957.59;5018283;28;20028;-48
2022/05/26 06:26:48;;;;;;;28.75;7.40;;;;;;;15.19;100.00;101963.53;5019945;28;20579;-44
2022/05/26 06:37:28;;;;;;;33.33;8.18;;;;;;;15.28;100.00;101976.00;5038078;28;20035;-44
2022/05/26 06:39:54;;;;;;;31.30;8.00;;;;;;;15.27;100.00;101985.09;5037483;28;20483;-43
2022/05/26 06:42:19;;;;;;;26.42;7.90;;;;;;;15.29;100.00;101984.91;5037644;28;20095;-43
2022/05/26 06:44:45;;;;;;;37.28;8.63;;;;;;;15.29;100.00;101985.75;5039490;28;20486;-44
2022/05/26 06:47:13;;;;;;;35.30;8.27;;;;;;;15.37;100.00;101982.22;5039056;28;20395;-48
2022/05/26 06:49:39;;;;;;;35.28;7.95;;;;;;;15.56;100.00;101977.56;5021225;28;20040;-46
2022/05/26 06:52:06;;;;;;;32.90;8.60;;;;;;;15.56;100.00;101988.31;5018728;28;20041;-45
2022/05/26 06:54:37;;;;;;;30.10;8.48;;;;;;;15.43;100.00;101986.13;5016571;28;20333;-44
2022/05/26 06:57:04;;;;;;;28.92;7.82;;;;;;;15.58;100.00;101995.25;5019468;28;20018;-44
2022/05/26 06:59:29;;;;;;;33.42;8.38;;;;;;;15.71;100.00;102000.13;5014650;28;20124;-44
2022/05/26 07:01:55;;;;;;;25.73;7.90;;;;;;;15.91;100.00;101999.84;5017220;28;20029;-45
2022/05/26 07:04:21;;;;;;;23.30;7.95;;;;;;;15.90;100.00;102008.94;5017982;28;20465;-46
2022/05/26 07:06:51;;;;;;;27.67;7.30;;;;;;;15.79;100.00;101999.34;5027873;28;20021;-46
2022/05/26 07:09:17;;;;;;;27.63;7.88;;;;;;;15.59;100.00;102004.16;5038447;28;20043;-48
2022/05/26 07:11:44;;;;;;;26.60;8.40;;;;;;;15.71;100.00;102001.97;5039177;28;20033;-46
2022/05/26 07:14:10;;;;;;;27.83;7.82;;;;;;;15.92;100.00;102010.47;5037348;28;20079;-44
2022/05/26 07:16:36;;;;;;;26.85;7.85;;;;;;;16.24;100.00;102011.44;5037658;28;20037;-45
2022/05/26 07:19:01;;;;;;;26.35;8.25;;;;;;;16.47;100.00;102016.16;5035805;28;20043;-44
2022/05/26 07:21:26;;;;;;;23.48;6.80;;;;;;;16.54;100.00;102017.97;5037393;28;20155;-45
2022/05/26 07:23:52;;;;;;;30.63;7.65;;;;;;;16.50;100.00;102023.91;5036791;28;20021;-44
2022/05/26 07:26:17;;;;;;;28.23;7.32;;;;;;;16.60;100.00;102025.38;5037670;28;20494;-44
2022/05/26 07:28:43;;;;;;;24.63;7.55;;;;;;;16.62;100.00;102024.38;5024251;28;20436;-45
2022/05/26 07:31:11;;;;;;;21.10;6.90;;;;;;;16.70;100.00;102036.00;5027011;28;20035;-44
2022/05/26 07:33:37;;;;;;;26.65;6.88;;;;;;;16.91;100.00;102032.75;5037274;28;20021;-44
2022/05/26 07:36:03;;;;;;;17.98;6.28;;;;;;;16.86;99.32;102034.28;5037542;28;20025;-46
2022/05/26 07:41:19;;;;;;;21.83;6.15;;;;;;;16.64;100.00;102036.66;5037002;28;20185;-44
2022/05/26 07:43:52;;;;;;;27.67;7.25;;;;;;;16.56;100.00;102039.38;5037224;28;20314;-48
2022/05/26 07:46:23;;;;;;;21.35;6.35;;;;;;;16.45;100.00;102028.97;5026143;28;20041;-46
2022/05/26 07:48:49;;;;;;;25.55;6.95;;;;;;;16.58;100.00;102031.94;5027853;28;20148;-44
2022/05/26 07:51:15;;;;;;;22.75;6.88;;;;;;;16.68;100.00;102027.19;5026600;28;20052;-43
2022/05/26 07:53:41;;;;;;;21.80;7.07;;;;;;;16.94;99.87;102029.69;5023928;28;20313;-45
2022/05/26 07:56:06;;;;;;;24.05;6.38;;;;;;;17.19;100.00;102026.06;5024401;28;20336;-44
2022/05/26 07:58:34;;;;;;;19.30;6.47;;;;;;;17.26;97.31;102030.59;5018639;28;20394;-44
2022/05/26 08:01:01;;;;;;;20.45;6.07;;;;;;;17.42;96.89;102039.63;5023221;28;20039;-43
2022/05/26 08:03:26;;;;;;;18.65;6.22;;;;;;;17.56;95.21;102051.53;5026996;28;20025;-44
2022/05/26 08:05:52;;;;;;;20.35;6.13;;;;;;;17.68;94.41;102039.28;5036526;28;20670;-44
2022/05/26 08:08:18;;;;;;;23.10;6.10;;;;;;;17.67;94.51;102043.03;5033052;28;20546;-44
2022/05/26 08:10:43;;;;;;;20.58;5.50;;;;;;;17.64;92.44;102049.59;5036729;28;20387;-45
2022/05/26 08:13:08;;;;;;;21.38;5.22;;;;;;;17.72;92.73;102054.13;5016443;28;20431;-45
2022/05/26 08:15:34;;;;;;;27.05;6.00;;;;;;;17.69;93.52;102043.69;5036250;28;20029;-44
2022/05/26 08:17:59;;;;;;;29.13;6.10;;;;;;;17.51;92.43;102052.03;5035897;28;20337;-44
2022/05/26 08:20:25;;;;;;;15.43;5.28;;;;;;;17.62;93.39;102048.13;5035803;28;20112;-47
2022/05/26 08:22:50;;;;;;;15.88;4.80;;;;;;;17.71;92.30;102050.56;5034715;28;20030;-42
2022/05/26 08:25:16;;;;;;;16.27;4.75;;;;;;;17.75;90.75;102059.16;5024353;28;20035;-45
2022/05/26 08:27:41;;;;;;;14.88;4.47;;;;;;;17.78;90.33;102050.69;5025668;28;20634;-46
2022/05/26 08:30:08;;;;;;;16.65;4.55;;;;;;;17.96;89.92;102036.09;5040726;28;20021;-45
2022/05/26 08:32:33;;;;;;;14.85;4.32;;;;;;;18.21;88.53;102056.50;5032271;28;20029;-43
2022/05/26 08:35:01;;;;;;;15.50;4.45;;;;;;;18.18;88.31;102045.22;5024309;28;20024;-45
2022/05/26 08:37:27;;;;;;;13.35;4.43;;;;;;;18.31;88.72;102048.09;5032193;28;20024;-43
2022/05/26 08:39:52;;;;;;;12.38;3.88;;;;;;;18.45;86.51;102060.00;5038651;28;20032;-45
2022/05/26 08:42:22;;;;;;;17.67;4.82;;;;;;;18.56;87.50;102067.66;5025761;28;20032;-45
2022/05/26 08:44:49;;;;;;;13.80;4.00;;;;;;;18.68;83.93;102070.75;5033298;28;20013;-44
2022/05/26 08:47:20;;;;;;;12.70;4.00;;;;;;;18.80;82.91;102069.28;5024053;28;20267;-42
2022/05/26 08:50:07;;;;;;;16.65;4.82;;;;;;;18.68;82.66;102069.91;5024930;28;20053;-44
2022/05/26 08:52:43;;;;;;;14.45;4.45;;;;;;;18.55;83.63;102081.34;5023770;28;20055;-44
2022/05/26 08:55:19;;;;;;;12.35;3.53;;;;;;;18.69;83.48;102074.31;5031126;28;20588;-45
2022/05/26 08:57:54;;;;;;;11.50;4.18;;;;;;;18.67;82.22;102076.34;5031479;28;20056;-44
2022/05/26 09:00:22;;;;;;;15.18;5.32;;;;;;;18.75;83.75;102082.50;5035947;28;20029;-44
2022/05/26 09:02:54;;;;;;;12.40;4.70;;;;;;;18.91;81.81;102073.41;5035801;28;20025;-43
2022/05/26 09:05:20;;;;;;;14.80;3.90;;;;;;;19.07;82.01;102076.97;5036150;28;20519;-43
2022/05/26 09:13:51;;;;;;;12.48;4.03;;;;;;;19.52;78.40;102073.16;5035128;28;20067;-45
2022/05/26 09:16:17;;;;;;;16.65;4.20;;;;;;;19.65;77.17;102072.47;5035615;28;20610;-47
2022/05/26 09:18:43;;;;;;;14.30;4.00;;;;;;;19.59;76.39;102081.38;5017534;28;20099;-46
2022/05/26 09:21:13;;;;;;;9.02;4.00;;;;;;;19.52;76.12;102075.03;5030315;28;20119;-45
2022/05/26 09:23:42;;;;;;;11.95;3.97;;;;;;;19.39;75.92;102076.53;5030465;28;20069;-42
2022/05/26 09:26:11;;;;;;;14.05;3.30;;;;;;;19.56;75.17;102098.00;5035082;28;20021;-44
2022/05/26 09:28:44;;;;;;;14.85;4.00;;;;;;;19.84;75.35;102100.00;5020035;28;20052;-45
2022/05/26 09:31:21;;;;;;;15.90;4.35;;;;;;;19.60;76.11;102088.47;5028553;28;20359;-47
2022/05/26 09:34:08;;;;;;;15.48;4.32;;;;;;;19.38;78.84;102099.28;5034469;28;20029;-43
2022/05/26 09:36:44;;;;;;;15.02;3.92;;;;;;;19.28;79.10;102104.13;5034094;28;20353;-44
2022/05/26 09:39:10;;;;;;;15.32;3.42;;;;;;;19.42;75.97;102105.13;5034305;28;20056;-47
2022/05/26 09:41:47;;;;;;;17.27;3.95;;;;;;;19.18;76.28;102109.84;5035216;28;20104;-43
2022/05/26 09:44:25;;;;;;;13.73;3.47;;;;;;;18.63;78.31;102111.06;5034353;28;20103;-43
2022/05/26 09:46:52;;;;;;;14.45;3.55;;;;;;;18.60;78.43;102112.28;5032801;28;20819;-45
2022/05/26 09:49:23;;;;;;;7.07;2.90;;;;;;;18.81;77.25;102106.13;5029139;28;20411;-46
2022/05/26 09:51:49;;;;;;;10.82;3.10;;;;;;;19.04;77.92;102118.78;5035956;28;20056;-48
2022/05/26 09:54:32;;;;;;;9.52;3.17;;;;;;;18.91;79.38;102119.44;5035703;28;20148;-45
2022/05/26 09:57:10;;;;;;;13.27;3.53;;;;;;;18.78;78.20;102120.03;5035722;28;20033;-45
2022/05/26 09:59:38;;;;;;;13.95;3.50;;;;;;;18.92;77.57;102112.97;5033265;28;20033;-45
2022/05/26 10:02:14;;;;;;;10.90;3.25;;;;;;;18.91;77.75;102119.44;5014046;28;20034;-44
2022/05/26 10:05:21;;;;;;;10.90;2.50;;;;;;;19.20;74.27;102125.91;5015263;28;20040;-46
2022/05/26 10:07:46;;;;;;;9.30;2.80;;;;;;;19.31;70.88;102128.13;4984037;28;20086;-44
2022/05/26 10:10:24;;;;;;;9.70;2.60;;;;;;;19.09;73.73;102127.19;5033326;28;20025;-46
2022/05/26 10:13:28;;;;;;;9.90;2.58;;;;;;;19.07;75.29;102131.13;5026213;28;20041;-44
2022/05/26 10:16:22;;;;;;;13.10;2.72;;;;;;;19.34;74.00;102122.31;4998272;28;20035;-45
2022/05/26 10:19:15;;;;;;;7.50;2.60;;;;;;;19.97;72.03;102123.72;5033101;28;20032;-46
2022/05/26 10:22:08;;;;;;;8.00;2.80;;;;;;;19.74;71.99;102130.13;5034071;28;20279;-46
2022/05/26 10:25:07;;;;;;;12.73;3.05;;;;;;;19.54;73.48;102124.47;5034181;28;20047;-44
2022/05/26 10:27:55;;;;;;;13.63;2.80;;;;;;;19.86;71.60;102127.81;5028597;28;20065;-46
2022/05/26 10:30:51;;;;;;;10.38;2.65;;;;;;;19.73;68.97;102129.28;5014617;28;20120;-44
2022/05/26 10:33:44;;;;;;;5.93;2.42;;;;;;;19.51;70.38;102131.09;5023840;28;20132;-45
2022/05/26 10:36:25;;;;;;;8.80;2.42;;;;;;;19.75;71.64;102124.56;5033085;28;20021;-46
2022/05/26 10:38:59;;;;;;;;;;;;;;;20.12;69.24;102129.94;5033307;28;20226;-48
2022/05/26 10:41:49;;;;;;;7.47;2.40;;;;;;;20.16;70.12;102133.09;5031448;28;19908;-44
2022/05/26 10:44:25;;;;;;;8.90;2.60;;;;;;;19.98;70.92;102130.84;5033613;28;20017;-43
2022/05/26 10:46:59;;;;;;;7.65;2.35;;;;;;;19.80;70.73;102134.81;5034688;28;20040;-44
2022/05/26 10:49:34;;;;;;;10.85;2.92;;;;;;;20.27;70.21;102128.00;5033142;28;20029;-47
2022/05/26 10:52:07;;;;;;;11.13;2.40;;;;;;;20.58;65.38;102128.69;5033933;28;20045;-45
2022/05/26 10:54:44;;;;;;;7.72;2.20;;;;;;;20.70;65.55;102124.41;5016517;28;20072;-47
2022/05/26 10:57:09;;;;;;;11.82;2.70;;;;;;;20.77;63.95;102130.72;5019613;28;20523;-45
2022/05/26 11:00:04;;;;;;;13.40;2.40;;;;;;;20.61;67.84;102147.31;5016507;28;20049;-45
2022/05/26 11:02:38;;;;;;;11.18;2.50;;;;;;;20.18;67.81;102137.31;5015812;28;20033;-45
2022/05/26 11:05:13;;;;;;;9.88;2.22;;;;;;;20.03;68.24;102145.50;5018528;28;20029;-48
2022/05/26 11:07:48;;;;;;;10.57;2.55;;;;;;;19.97;67.94;102146.25;5017055;28;20037;-47
2022/05/26 11:10:23;;;;;;;9.90;2.47;;;;;;;20.29;68.19;102139.50;4999733;28;20506;-45
2022/05/26 11:13:00;;;;;;;11.48;3.00;;;;;;;20.02;65.43;102137.56;5017300;28;20110;-44
2022/05/26 11:18:33;;;;;;;9.18;2.40;;;;;;;19.89;68.47;102127.38;5017913;28;20045;-45
2022/05/26 11:20:59;;;;;;;14.70;3.10;;;;;;;20.15;67.84;102131.44;5019422;28;20048;-46
2022/05/26 11:23:28;;;;;;;11.38;2.75;;;;;;;20.37;66.58;102135.00;5015034;28;20520;-45
2022/05/26 11:25:59;;;;;;;10.38;2.83;;;;;;;20.59;67.86;102123.06;5017723;28;20025;-45
2022/05/26 11:28:56;;;;;;;9.35;2.58;;;;;;;20.70;65.33;102134.44;5014739;28;20030;-45
2022/05/26 11:37:23;;;;;;;16.83;3.00;;;;;;;19.64;67.99;102124.19;5015845;28;20041;-44
2022/05/26 11:39:53;;;;;;;12.18;2.80;;;;;;;19.86;69.09;102123.22;5018022;28;20400;-48
2022/05/26 11:42:29;;;;;;;17.13;3.67;;;;;;;19.99;69.10;102113.53;5016884;28;20428;-47
2022/05/26 11:45:17;;;;;;;11.32;3.53;;;;;;;20.35;67.80;102110.75;5016333;28;20034;-49
2022/05/26 11:48:30;;;;;;;11.13;3.35;;;;;;;20.76;67.85;102114.66;5016826;28;20144;-49
2022/05/26 11:51:11;;;;;;;8.13;3.55;;;;;;;20.82;62.65;102124.72;4955366;28;20042;-50
2022/05/26 11:53:46;;;;;;;11.65;4.00;;;;;;;20.44;62.51;102128.56;4960974;28;20407;-46
2022/05/26 11:56:23;;;;;;;13.38;4.30;;;;;;;20.40;65.57;102121.88;5008012;28;20036;-46
2022/05/26 11:59:18;;;;;;;10.77;4.30;;;;;;;20.72;67.15;102116.91;5035801;28;20373;-44
2022/05/26 12:01:45;;;;;;;13.00;5.38;;;;;;;21.23;65.04;102100.31;5035755;28;20332;-47
2022/05/26 12:04:30;;;;;;;16.88;8.40;;;;;;;21.30;62.23;102107.66;5036652;28;20092;-45
2022/05/26 12:06:59;;;;;;;18.08;9.13;;;;;;;21.27;62.72;102108.09;5032983;28;20037;-46